sensor_id;sensor_type;location;lat;lon;timestamp;P1;P2;P0
47079;PMS5003;33067;49.296;14.470;2023-12-29T00:00:50;11;9;
47079;PMS5003;33067;49.296;14.470;2023-12-29T00:03:14;10;10;
47079;PMS5003;33067;49.296;14.470;2023-12-29T00:05:40;10;10;
47079;PMS5003;33067;49.296;14.470;2023-12-29T00:08:06;9;9;
47079;PMS5003;33067;49.296;14.470;2023-12-29T00:10:30;11;11;
47079;PMS5003;33067;49.296;14.470;2023-12-29T00:12:56;12;12;
47079;PMS5003;33067;49.296;14.470;2023-12-29T00:15:23;12;9;
47079;PMS5003;33067;49.296;14.470;2023-12-29T00:17:47;8;8;
47079;PMS5003;33067;49.296;14.470;2023-12-29T00:20:12;11;10;
47079;PMS5003;33067;49.296;14.470;2023-12-29T00:22:38;9;8;
47079;PMS5003;33067;49.296;14.470;2023-12-29T00:25:03;12;12;
47079;PMS5003;33067;49.296;14.470;2023-12-29T00:27:29;9;9;
47079;PMS5003;33067;49.296;14.470;2023-12-29T00:29:56;11;9;
47079;PMS5003;33067;49.296;14.470;2023-12-29T00:32:20;6;6;
47079;PMS5003;33067;49.296;14.470;2023-12-29T00:34:44;11;9;
47079;PMS5003;33067;49.296;14.470;2023-12-29T00:37:10;9;9;
47079;PMS5003;33067;49.296;14.470;2023-12-29T00:39:35;13;11;
47079;PMS5003;33067;49.296;14.470;2023-12-29T00:42:03;12;12;
47079;PMS5003;33067;49.296;14.470;2023-12-29T00:44:26;12;12;
47079;PMS5003;33067;49.296;14.470;2023-12-29T00:46:51;10;10;
47079;PMS5003;33067;49.296;14.470;2023-12-29T00:49:16;14;13;
47079;PMS5003;33067;49.296;14.470;2023-12-29T00:51:43;9;9;
47079;PMS5003;33067;49.296;14.470;2023-12-29T00:54:07;14;11;
47079;PMS5003;33067;49.296;14.470;2023-12-29T00:56:33;54;51;
47079;PMS5003;33067;49.296;14.470;2023-12-29T00:58:58;13;13;
47079;PMS5003;33067;49.296;14.470;2023-12-29T01:01:24;97;95;
47079;PMS5003;33067;49.296;14.470;2023-12-29T01:03:49;45;43;
47079;PMS5003;33067;49.296;14.470;2023-12-29T01:06:15;28;25;
47079;PMS5003;33067;49.296;14.470;2023-12-29T01:08:41;27;27;
47079;PMS5003;33067;49.296;14.470;2023-12-29T01:11:07;42;42;
47079;PMS5003;33067;49.296;14.470;2023-12-29T01:13:31;34;34;
47079;PMS5003;33067;49.296;14.470;2023-12-29T01:15:56;33;33;
47079;PMS5003;33067;49.296;14.470;2023-12-29T01:18:21;23;20;
47079;PMS5003;33067;49.296;14.470;2023-12-29T01:20:47;30;27;
47079;PMS5003;33067;49.296;14.470;2023-12-29T01:23:12;30;30;
47079;PMS5003;33067;49.296;14.470;2023-12-29T01:25:37;63;62;
47079;PMS5003;33067;49.296;14.470;2023-12-29T01:28:03;36;33;
47079;PMS5003;33067;49.296;14.470;2023-12-29T01:30:30;24;24;
47079;PMS5003;33067;49.296;14.470;2023-12-29T01:32:54;31;31;
47079;PMS5003;33067;49.296;14.470;2023-12-29T01:35:19;54;54;
47079;PMS5003;33067;49.296;14.470;2023-12-29T01:37:45;59;59;
47079;PMS5003;33067;49.296;14.470;2023-12-29T01:40:11;47;45;
47079;PMS5003;33067;49.296;14.470;2023-12-29T01:42:35;28;28;
47079;PMS5003;33067;49.296;14.470;2023-12-29T01:45:01;106;106;
47079;PMS5003;33067;49.296;14.470;2023-12-29T01:47:26;9;8;
47079;PMS5003;33067;49.296;14.470;2023-12-29T01:49:53;11;10;
47079;PMS5003;33067;49.296;14.470;2023-12-29T01:52:17;31;31;
47079;PMS5003;33067;49.296;14.470;2023-12-29T01:54:42;31;31;
47079;PMS5003;33067;49.296;14.470;2023-12-29T01:57:08;42;42;
47079;PMS5003;33067;49.296;14.470;2023-12-29T01:59:33;6;6;
47079;PMS5003;33067;49.296;14.470;2023-12-29T02:01:59;12;6;
47079;PMS5003;33067;49.296;14.470;2023-12-29T02:04:24;11;10;
47079;PMS5003;33067;49.296;14.470;2023-12-29T02:06:49;11;10;
47079;PMS5003;33067;49.296;14.470;2023-12-29T02:09:15;14;13;
47079;PMS5003;33067;49.296;14.470;2023-12-29T02:11:40;6;6;
47079;PMS5003;33067;49.296;14.470;2023-12-29T02:14:05;47;47;
47079;PMS5003;33067;49.296;14.470;2023-12-29T02:16:37;53;48;
47079;PMS5003;33067;49.296;14.470;2023-12-29T02:18:57;5;5;
47079;PMS5003;33067;49.296;14.470;2023-12-29T02:21:23;6;6;
47079;PMS5003;33067;49.296;14.470;2023-12-29T02:23:49;49;49;
47079;PMS5003;33067;49.296;14.470;2023-12-29T02:26:13;86;86;
47079;PMS5003;33067;49.296;14.470;2023-12-29T02:28:39;8;8;
47079;PMS5003;33067;49.296;14.470;2023-12-29T02:31:06;7;7;
47079;PMS5003;33067;49.296;14.470;2023-12-29T02:33:29;4;4;
47079;PMS5003;33067;49.296;14.470;2023-12-29T02:35:55;8;8;
47079;PMS5003;33067;49.296;14.470;2023-12-29T02:38:20;5;5;
47079;PMS5003;33067;49.296;14.470;2023-12-29T02:40:45;33;33;
47079;PMS5003;33067;49.296;14.470;2023-12-29T02:43:11;48;48;
47079;PMS5003;33067;49.296;14.470;2023-12-29T02:45:36;72;72;
47079;PMS5003;33067;49.296;14.470;2023-12-29T02:48:02;24;22;
47079;PMS5003;33067;49.296;14.470;2023-12-29T02:50:28;54;54;
47079;PMS5003;33067;49.296;14.470;2023-12-29T02:52:53;18;16;
47079;PMS5003;33067;49.296;14.470;2023-12-29T02:55:18;8;8;
47079;PMS5003;33067;49.296;14.470;2023-12-29T02:57:44;4;4;
47079;PMS5003;33067;49.296;14.470;2023-12-29T03:00:09;6;6;
47079;PMS5003;33067;49.296;14.470;2023-12-29T03:02:36;4;4;
47079;PMS5003;33067;49.296;14.470;2023-12-29T03:05:00;8;8;
47079;PMS5003;33067;49.296;14.470;2023-12-29T03:07:25;6;6;
47079;PMS5003;33067;49.296;14.470;2023-12-29T03:09:50;4;4;
47079;PMS5003;33067;49.296;14.470;2023-12-29T03:13:00;133;133;
47079;PMS5003;33067;49.296;14.470;2023-12-29T03:15:26;35;34;
47079;PMS5003;33067;49.296;14.470;2023-12-29T03:17:51;25;24;
47079;PMS5003;33067;49.296;14.470;2023-12-29T03:20:17;69;68;
47079;PMS5003;33067;49.296;14.470;2023-12-29T03:22:41;43;43;
47079;PMS5003;33067;49.296;14.470;2023-12-29T03:25:07;45;43;
47079;PMS5003;33067;49.296;14.470;2023-12-29T03:27:32;61;58;
47079;PMS5003;33067;49.296;14.470;2023-12-29T03:29:58;73;73;
47079;PMS5003;33067;49.296;14.470;2023-12-29T03:32:23;120;120;
47079;PMS5003;33067;49.296;14.470;2023-12-29T03:34:49;35;35;
47079;PMS5003;33067;49.296;14.470;2023-12-29T03:37:14;51;49;
47079;PMS5003;33067;49.296;14.470;2023-12-29T03:39:40;39;39;
47079;PMS5003;33067;49.296;14.470;2023-12-29T03:42:05;69;68;
47079;PMS5003;33067;49.296;14.470;2023-12-29T03:44:30;53;53;
47079;PMS5003;33067;49.296;14.470;2023-12-29T03:46:56;57;56;
47079;PMS5003;33067;49.296;14.470;2023-12-29T03:49:21;40;38;
47079;PMS5003;33067;49.296;14.470;2023-12-29T03:51:46;45;43;
47079;PMS5003;33067;49.296;14.470;2023-12-29T03:54:12;79;73;
47079;PMS5003;33067;49.296;14.470;2023-12-29T03:56:37;80;78;
47079;PMS5003;33067;49.296;14.470;2023-12-29T03:59:04;111;104;
47079;PMS5003;33067;49.296;14.470;2023-12-29T04:01:29;44;42;
47079;PMS5003;33067;49.296;14.470;2023-12-29T04:03:54;37;37;
47079;PMS5003;33067;49.296;14.470;2023-12-29T04:06:20;26;26;
47079;PMS5003;33067;49.296;14.470;2023-12-29T04:08:45;85;85;
47079;PMS5003;33067;49.296;14.470;2023-12-29T04:11:12;60;53;
47079;PMS5003;33067;49.296;14.470;2023-12-29T04:13:36;59;53;
47079;PMS5003;33067;49.296;14.470;2023-12-29T04:16:03;39;36;
47079;PMS5003;33067;49.296;14.470;2023-12-29T04:18:28;50;45;
47079;PMS5003;33067;49.296;14.470;2023-12-29T04:20:52;44;43;
47079;PMS5003;33067;49.296;14.470;2023-12-29T04:23:17;53;51;
47079;PMS5003;33067;49.296;14.470;2023-12-29T04:25:42;67;66;
47079;PMS5003;33067;49.296;14.470;2023-12-29T04:28:07;69;67;
47079;PMS5003;33067;49.296;14.470;2023-12-29T04:30:33;30;30;
47079;PMS5003;33067;49.296;14.470;2023-12-29T04:32:58;100;97;
47079;PMS5003;33067;49.296;14.470;2023-12-29T04:35:23;64;63;
47079;PMS5003;33067;49.296;14.470;2023-12-29T04:37:49;109;109;
47079;PMS5003;33067;49.296;14.470;2023-12-29T04:40:16;102;101;
47079;PMS5003;33067;49.296;14.470;2023-12-29T04:42:40;63;63;
47079;PMS5003;33067;49.296;14.470;2023-12-29T04:45:06;27;27;
47079;PMS5003;33067;49.296;14.470;2023-12-29T04:47:30;29;28;
47079;PMS5003;33067;49.296;14.470;2023-12-29T04:49:56;50;50;
47079;PMS5003;33067;49.296;14.470;2023-12-29T04:52:21;49;48;
47079;PMS5003;33067;49.296;14.470;2023-12-29T04:54:47;47;45;
47079;PMS5003;33067;49.296;14.470;2023-12-29T04:57:12;42;42;
47079;PMS5003;33067;49.296;14.470;2023-12-29T04:59:37;77;77;
47079;PMS5003;33067;49.296;14.470;2023-12-29T05:02:03;102;100;
47079;PMS5003;33067;49.296;14.470;2023-12-29T05:04:29;33;33;
47079;PMS5003;33067;49.296;14.470;2023-12-29T05:06:54;41;41;
47079;PMS5003;33067;49.296;14.470;2023-12-29T05:09:20;92;91;
47079;PMS5003;33067;49.296;14.470;2023-12-29T05:11:45;91;90;
47079;PMS5003;33067;49.296;14.470;2023-12-29T05:14:11;42;42;
47079;PMS5003;33067;49.296;14.470;2023-12-29T05:16:36;60;55;
47079;PMS5003;33067;49.296;14.470;2023-12-29T05:19:01;56;56;
47079;PMS5003;33067;49.296;14.470;2023-12-29T05:21:27;20;20;
47079;PMS5003;33067;49.296;14.470;2023-12-29T05:23:52;13;13;
47079;PMS5003;33067;49.296;14.470;2023-12-29T05:26:17;10;10;
47079;PMS5003;33067;49.296;14.470;2023-12-29T05:28:43;13;13;
47079;PMS5003;33067;49.296;14.470;2023-12-29T05:31:08;9;9;
47079;PMS5003;33067;49.296;14.470;2023-12-29T05:33:33;9;9;
47079;PMS5003;33067;49.296;14.470;2023-12-29T05:35:59;11;8;
47079;PMS5003;33067;49.296;14.470;2023-12-29T05:38:26;9;9;
47079;PMS5003;33067;49.296;14.470;2023-12-29T05:40:49;8;8;
47079;PMS5003;33067;49.296;14.470;2023-12-29T05:43:15;10;8;
47079;PMS5003;33067;49.296;14.470;2023-12-29T05:45:40;9;9;
47079;PMS5003;33067;49.296;14.470;2023-12-29T05:48:06;7;7;
47079;PMS5003;33067;49.296;14.470;2023-12-29T05:50:31;11;11;
47079;PMS5003;33067;49.296;14.470;2023-12-29T05:52:56;9;8;
47079;PMS5003;33067;49.296;14.470;2023-12-29T05:55:22;9;9;
47079;PMS5003;33067;49.296;14.470;2023-12-29T05:57:48;7;7;
47079;PMS5003;33067;49.296;14.470;2023-12-29T06:00:13;5;5;
47079;PMS5003;33067;49.296;14.470;2023-12-29T06:02:39;6;5;
47079;PMS5003;33067;49.296;14.470;2023-12-29T06:05:04;10;6;
47079;PMS5003;33067;49.296;14.470;2023-12-29T06:07:30;7;7;
47079;PMS5003;33067;49.296;14.470;2023-12-29T06:09:55;9;8;
47079;PMS5003;33067;49.296;14.470;2023-12-29T06:12:20;8;8;
47079;PMS5003;33067;49.296;14.470;2023-12-29T06:14:45;9;6;
47079;PMS5003;33067;49.296;14.470;2023-12-29T06:17:10;10;9;
47079;PMS5003;33067;49.296;14.470;2023-12-29T06:19:36;7;7;
47079;PMS5003;33067;49.296;14.470;2023-12-29T06:22:01;11;11;
47079;PMS5003;33067;49.296;14.470;2023-12-29T06:24:26;10;10;
47079;PMS5003;33067;49.296;14.470;2023-12-29T06:26:52;10;10;
47079;PMS5003;33067;49.296;14.470;2023-12-29T06:29:17;11;9;
47079;PMS5003;33067;49.296;14.470;2023-12-29T06:31:42;12;12;
47079;PMS5003;33067;49.296;14.470;2023-12-29T06:34:08;12;12;
47079;PMS5003;33067;49.296;14.470;2023-12-29T06:36:33;8;8;
47079;PMS5003;33067;49.296;14.470;2023-12-29T06:39:00;11;10;
47079;PMS5003;33067;49.296;14.470;2023-12-29T06:41:24;12;9;
47079;PMS5003;33067;49.296;14.470;2023-12-29T06:43:49;9;9;
47079;PMS5003;33067;49.296;14.470;2023-12-29T06:46:14;10;9;
47079;PMS5003;33067;49.296;14.470;2023-12-29T06:48:40;10;10;
47079;PMS5003;33067;49.296;14.470;2023-12-29T06:51:05;13;13;
47079;PMS5003;33067;49.296;14.470;2023-12-29T06:53:31;11;9;
47079;PMS5003;33067;49.296;14.470;2023-12-29T06:55:57;13;10;
47079;PMS5003;33067;49.296;14.470;2023-12-29T06:58:21;13;13;
47079;PMS5003;33067;49.296;14.470;2023-12-29T07:00:47;14;14;
47079;PMS5003;33067;49.296;14.470;2023-12-29T07:03:12;16;13;
47079;PMS5003;33067;49.296;14.470;2023-12-29T07:05:37;14;13;
47079;PMS5003;33067;49.296;14.470;2023-12-29T07:08:03;16;12;
47079;PMS5003;33067;49.296;14.470;2023-12-29T07:10:28;12;12;
47079;PMS5003;33067;49.296;14.470;2023-12-29T07:12:53;16;13;
47079;PMS5003;33067;49.296;14.470;2023-12-29T07:15:19;12;11;
47079;PMS5003;33067;49.296;14.470;2023-12-29T07:17:44;10;10;
47079;PMS5003;33067;49.296;14.470;2023-12-29T07:20:10;16;13;
47079;PMS5003;33067;49.296;14.470;2023-12-29T07:22:35;13;11;
47079;PMS5003;33067;49.296;14.470;2023-12-29T07:25:02;14;14;
47079;PMS5003;33067;49.296;14.470;2023-12-29T07:27:26;11;11;
47079;PMS5003;33067;49.296;14.470;2023-12-29T07:29:51;11;11;
47079;PMS5003;33067;49.296;14.470;2023-12-29T07:32:17;11;11;
47079;PMS5003;33067;49.296;14.470;2023-12-29T07:34:42;13;11;
47079;PMS5003;33067;49.296;14.470;2023-12-29T07:37:07;11;10;
47079;PMS5003;33067;49.296;14.470;2023-12-29T07:39:36;10;9;
47079;PMS5003;33067;49.296;14.470;2023-12-29T07:41:58;9;9;
47079;PMS5003;33067;49.296;14.470;2023-12-29T07:44:24;9;9;
47079;PMS5003;33067;49.296;14.470;2023-12-29T07:46:49;10;9;
47079;PMS5003;33067;49.296;14.470;2023-12-29T07:49:14;11;10;
47079;PMS5003;33067;49.296;14.470;2023-12-29T07:51:40;10;10;
47079;PMS5003;33067;49.296;14.470;2023-12-29T07:54:05;14;10;
47079;PMS5003;33067;49.296;14.470;2023-12-29T07:56:30;9;8;
47079;PMS5003;33067;49.296;14.470;2023-12-29T07:58:55;10;9;
47079;PMS5003;33067;49.296;14.470;2023-12-29T08:01:21;9;8;
47079;PMS5003;33067;49.296;14.470;2023-12-29T08:03:46;9;9;
47079;PMS5003;33067;49.296;14.470;2023-12-29T08:06:11;12;12;
47079;PMS5003;33067;49.296;14.470;2023-12-29T08:08:37;12;10;
47079;PMS5003;33067;49.296;14.470;2023-12-29T08:11:02;10;10;
47079;PMS5003;33067;49.296;14.470;2023-12-29T08:13:29;10;10;
47079;PMS5003;33067;49.296;14.470;2023-12-29T08:15:55;9;7;
47079;PMS5003;33067;49.296;14.470;2023-12-29T08:18:18;11;11;
47079;PMS5003;33067;49.296;14.470;2023-12-29T08:20:43;10;10;
47079;PMS5003;33067;49.296;14.470;2023-12-29T08:23:09;10;10;
47079;PMS5003;33067;49.296;14.470;2023-12-29T08:25:34;11;11;
47079;PMS5003;33067;49.296;14.470;2023-12-29T08:27:59;11;11;
47079;PMS5003;33067;49.296;14.470;2023-12-29T08:30:25;13;12;
47079;PMS5003;33067;49.296;14.470;2023-12-29T08:32:50;13;12;
47079;PMS5003;33067;49.296;14.470;2023-12-29T08:35:15;16;16;
47079;PMS5003;33067;49.296;14.470;2023-12-29T08:37:42;10;10;
47079;PMS5003;33067;49.296;14.470;2023-12-29T08:40:06;12;12;
47079;PMS5003;33067;49.296;14.470;2023-12-29T08:42:31;12;12;
47079;PMS5003;33067;49.296;14.470;2023-12-29T08:44:58;11;11;
47079;PMS5003;33067;49.296;14.470;2023-12-29T08:47:22;25;19;
47079;PMS5003;33067;49.296;14.470;2023-12-29T08:49:47;54;54;
47079;PMS5003;33067;49.296;14.470;2023-12-29T08:52:12;12;12;
47079;PMS5003;33067;49.296;14.470;2023-12-29T08:54:39;12;12;
47079;PMS5003;33067;49.296;14.470;2023-12-29T08:57:03;12;10;
47079;PMS5003;33067;49.296;14.470;2023-12-29T08:59:30;15;13;
47079;PMS5003;33067;49.296;14.470;2023-12-29T09:01:53;10;10;
47079;PMS5003;33067;49.296;14.470;2023-12-29T09:04:19;14;12;
47079;PMS5003;33067;49.296;14.470;2023-12-29T09:06:44;65;59;
47079;PMS5003;33067;49.296;14.470;2023-12-29T09:09:10;54;54;
47079;PMS5003;33067;49.296;14.470;2023-12-29T09:11:35;19;19;
47079;PMS5003;33067;49.296;14.470;2023-12-29T09:14:01;27;26;
47079;PMS5003;33067;49.296;14.470;2023-12-29T09:16:26;63;63;
47079;PMS5003;33067;49.296;14.470;2023-12-29T09:18:51;85;85;
47079;PMS5003;33067;49.296;14.470;2023-12-29T09:21:17;34;34;
47079;PMS5003;33067;49.296;14.470;2023-12-29T09:23:42;43;39;
47079;PMS5003;33067;49.296;14.470;2023-12-29T09:26:08;22;22;
47079;PMS5003;33067;49.296;14.470;2023-12-29T09:28:33;58;57;
47079;PMS5003;33067;49.296;14.470;2023-12-29T09:30:59;45;45;
47079;PMS5003;33067;49.296;14.470;2023-12-29T09:33:23;43;40;
47079;PMS5003;33067;49.296;14.470;2023-12-29T09:35:49;48;47;
47079;PMS5003;33067;49.296;14.470;2023-12-29T09:38:14;36;34;
47079;PMS5003;33067;49.296;14.470;2023-12-29T09:40:40;43;43;
47079;PMS5003;33067;49.296;14.470;2023-12-29T09:43:05;29;29;
47079;PMS5003;33067;49.296;14.470;2023-12-29T09:45:30;33;29;
47079;PMS5003;33067;49.296;14.470;2023-12-29T09:47:55;24;24;
47079;PMS5003;33067;49.296;14.470;2023-12-29T09:50:22;24;24;
47079;PMS5003;33067;49.296;14.470;2023-12-29T09:52:48;14;14;
47079;PMS5003;33067;49.296;14.470;2023-12-29T09:55:12;22;20;
47079;PMS5003;33067;49.296;14.470;2023-12-29T09:57:38;11;11;
47079;PMS5003;33067;49.296;14.470;2023-12-29T10:00:04;12;10;
47079;PMS5003;33067;49.296;14.470;2023-12-29T10:02:29;10;10;
47079;PMS5003;33067;49.296;14.470;2023-12-29T10:04:54;11;11;
47079;PMS5003;33067;49.296;14.470;2023-12-29T10:07:21;14;13;
47079;PMS5003;33067;49.296;14.470;2023-12-29T10:09:45;15;15;
47079;PMS5003;33067;49.296;14.470;2023-12-29T10:12:10;11;10;
47079;PMS5003;33067;49.296;14.470;2023-12-29T10:14:37;10;8;
47079;PMS5003;33067;49.296;14.470;2023-12-29T10:17:02;13;13;
47079;PMS5003;33067;49.296;14.470;2023-12-29T10:19:29;11;11;
47079;PMS5003;33067;49.296;14.470;2023-12-29T10:21:54;7;7;
47079;PMS5003;33067;49.296;14.470;2023-12-29T10:24:18;13;9;
47079;PMS5003;33067;49.296;14.470;2023-12-29T10:26:43;13;12;
47079;PMS5003;33067;49.296;14.470;2023-12-29T10:29:09;12;10;
47079;PMS5003;33067;49.296;14.470;2023-12-29T10:31:34;9;9;
47079;PMS5003;33067;49.296;14.470;2023-12-29T10:36:25;6;6;
47079;PMS5003;33067;49.296;14.470;2023-12-29T10:38:50;8;6;
47079;PMS5003;33067;49.296;14.470;2023-12-29T10:41:16;11;9;
47079;PMS5003;33067;49.296;14.470;2023-12-29T10:43:41;12;10;
47079;PMS5003;33067;49.296;14.470;2023-12-29T10:46:06;8;8;
47079;PMS5003;33067;49.296;14.470;2023-12-29T10:48:31;7;7;
47079;PMS5003;33067;49.296;14.470;2023-12-29T10:50:56;8;8;
47079;PMS5003;33067;49.296;14.470;2023-12-29T10:53:22;8;8;
47079;PMS5003;33067;49.296;14.470;2023-12-29T10:55:47;6;6;
47079;PMS5003;33067;49.296;14.470;2023-12-29T10:58:14;6;6;
47079;PMS5003;33067;49.296;14.470;2023-12-29T11:00:37;10;7;
47079;PMS5003;33067;49.296;14.470;2023-12-29T11:03:03;8;7;
47079;PMS5003;33067;49.296;14.470;2023-12-29T11:05:30;12;10;
47079;PMS5003;33067;49.296;14.470;2023-12-29T11:07:54;6;6;
47079;PMS5003;33067;49.296;14.470;2023-12-29T11:10:21;8;8;
47079;PMS5003;33067;49.296;14.470;2023-12-29T11:12:44;6;6;
47079;PMS5003;33067;49.296;14.470;2023-12-29T11:15:10;8;6;
47079;PMS5003;33067;49.296;14.470;2023-12-29T11:17:35;10;10;
47079;PMS5003;33067;49.296;14.470;2023-12-29T11:20:00;9;8;
47079;PMS5003;33067;49.296;14.470;2023-12-29T11:22:26;7;6;
47079;PMS5003;33067;49.296;14.470;2023-12-29T11:24:50;10;10;
47079;PMS5003;33067;49.296;14.470;2023-12-29T11:27:16;8;8;
47079;PMS5003;33067;49.296;14.470;2023-12-29T11:29:41;8;8;
47079;PMS5003;33067;49.296;14.470;2023-12-29T11:32:06;10;10;
47079;PMS5003;33067;49.296;14.470;2023-12-29T11:34:35;10;10;
47079;PMS5003;33067;49.296;14.470;2023-12-29T11:36:58;12;11;
47079;PMS5003;33067;49.296;14.470;2023-12-29T11:39:24;12;9;
47079;PMS5003;33067;49.296;14.470;2023-12-29T11:41:49;8;7;
47079;PMS5003;33067;49.296;14.470;2023-12-29T11:44:13;14;11;
47079;PMS5003;33067;49.296;14.470;2023-12-29T11:46:38;11;8;
47079;PMS5003;33067;49.296;14.470;2023-12-29T11:49:04;9;8;
47079;PMS5003;33067;49.296;14.470;2023-12-29T11:51:29;7;7;
47079;PMS5003;33067;49.296;14.470;2023-12-29T11:53:54;7;7;
47079;PMS5003;33067;49.296;14.470;2023-12-29T11:56:19;6;6;
47079;PMS5003;33067;49.296;14.470;2023-12-29T11:58:44;9;8;
47079;PMS5003;33067;49.296;14.470;2023-12-29T12:01:09;7;7;
47079;PMS5003;33067;49.296;14.470;2023-12-29T12:03:36;9;8;
47079;PMS5003;33067;49.296;14.470;2023-12-29T12:06:01;7;7;
47079;PMS5003;33067;49.296;14.470;2023-12-29T12:08:30;5;5;
47079;PMS5003;33067;49.296;14.470;2023-12-29T12:10:50;6;6;
47079;PMS5003;33067;49.296;14.470;2023-12-29T12:15:41;4;4;
47079;PMS5003;33067;49.296;14.470;2023-12-29T12:18:10;7;4;
47079;PMS5003;33067;49.296;14.470;2023-12-29T12:20:32;8;5;
47079;PMS5003;33067;49.296;14.470;2023-12-29T12:22:57;5;5;
47079;PMS5003;33067;49.296;14.470;2023-12-29T12:25:22;5;5;
47079;PMS5003;33067;49.296;14.470;2023-12-29T12:27:47;3;3;
47079;PMS5003;33067;49.296;14.470;2023-12-29T12:30:13;7;6;
47079;PMS5003;33067;49.296;14.470;2023-12-29T12:32:38;9;5;
47079;PMS5003;33067;49.296;14.470;2023-12-29T12:35:04;7;6;
47079;PMS5003;33067;49.296;14.470;2023-12-29T12:37:29;5;4;
47079;PMS5003;33067;49.296;14.470;2023-12-29T12:39:55;8;7;
47079;PMS5003;33067;49.296;14.470;2023-12-29T12:42:19;6;5;
47079;PMS5003;33067;49.296;14.470;2023-12-29T12:44:49;9;7;
47079;PMS5003;33067;49.296;14.470;2023-12-29T12:47:16;8;6;
47079;PMS5003;33067;49.296;14.470;2023-12-29T12:49:34;5;5;
47079;PMS5003;33067;49.296;14.470;2023-12-29T12:52:00;8;6;
47079;PMS5003;33067;49.296;14.470;2023-12-29T12:54:25;6;6;
47079;PMS5003;33067;49.296;14.470;2023-12-29T12:56:52;7;7;
47079;PMS5003;33067;49.296;14.470;2023-12-29T12:59:15;6;6;
47079;PMS5003;33067;49.296;14.470;2023-12-29T13:01:41;6;6;
47079;PMS5003;33067;49.296;14.470;2023-12-29T13:04:06;9;9;
47079;PMS5003;33067;49.296;14.470;2023-12-29T13:06:32;8;8;
47079;PMS5003;33067;49.296;14.470;2023-12-29T13:08:57;8;8;
47079;PMS5003;33067;49.296;14.470;2023-12-29T13:11:22;7;7;
47079;PMS5003;33067;49.296;14.470;2023-12-29T13:13:47;7;6;
47079;PMS5003;33067;49.296;14.470;2023-12-29T13:16:14;7;7;
47079;PMS5003;33067;49.296;14.470;2023-12-29T13:18:37;10;8;
47079;PMS5003;33067;49.296;14.470;2023-12-29T13:21:03;9;9;
47079;PMS5003;33067;49.296;14.470;2023-12-29T13:23:29;8;8;
47079;PMS5003;33067;49.296;14.470;2023-12-29T13:25:54;8;8;
47079;PMS5003;33067;49.296;14.470;2023-12-29T13:28:19;12;9;
47079;PMS5003;33067;49.296;14.470;2023-12-29T13:30:44;7;7;
47079;PMS5003;33067;49.296;14.470;2023-12-29T13:33:15;8;8;
47079;PMS5003;33067;49.296;14.470;2023-12-29T13:35:36;8;8;
47079;PMS5003;33067;49.296;14.470;2023-12-29T13:38:01;12;9;
47079;PMS5003;33067;49.296;14.470;2023-12-29T13:40:26;13;12;
47079;PMS5003;33067;49.296;14.470;2023-12-29T13:42:52;9;7;
47079;PMS5003;33067;49.296;14.470;2023-12-29T13:45:16;12;11;
47079;PMS5003;33067;49.296;14.470;2023-12-29T13:47:41;10;10;
47079;PMS5003;33067;49.296;14.470;2023-12-29T13:50:08;7;7;
47079;PMS5003;33067;49.296;14.470;2023-12-29T13:52:32;13;13;
47079;PMS5003;33067;49.296;14.470;2023-12-29T13:54:57;8;8;
47079;PMS5003;33067;49.296;14.470;2023-12-29T13:59:47;6;6;
47079;PMS5003;33067;49.296;14.470;2023-12-29T14:02:20;8;8;
47079;PMS5003;33067;49.296;14.470;2023-12-29T14:04:38;9;9;
47079;PMS5003;33067;49.296;14.470;2023-12-29T14:07:03;10;10;
47079;PMS5003;33067;49.296;14.470;2023-12-29T14:09:29;9;8;
47079;PMS5003;33067;49.296;14.470;2023-12-29T14:11:56;9;8;
47079;PMS5003;33067;49.296;14.470;2023-12-29T14:14:21;9;9;
47079;PMS5003;33067;49.296;14.470;2023-12-29T14:16:45;11;9;
47079;PMS5003;33067;49.296;14.470;2023-12-29T14:19:10;9;9;
47079;PMS5003;33067;49.296;14.470;2023-12-29T14:21:36;11;8;
47079;PMS5003;33067;49.296;14.470;2023-12-29T14:24:02;9;9;
47079;PMS5003;33067;49.296;14.470;2023-12-29T14:26:26;9;8;
47079;PMS5003;33067;49.296;14.470;2023-12-29T14:31:19;7;7;
47079;PMS5003;33067;49.296;14.470;2023-12-29T14:33:43;14;13;
47079;PMS5003;33067;49.296;14.470;2023-12-29T14:36:09;12;12;
47079;PMS5003;33067;49.296;14.470;2023-12-29T14:38:34;9;6;
47079;PMS5003;33067;49.296;14.470;2023-12-29T14:40:59;9;9;
47079;PMS5003;33067;49.296;14.470;2023-12-29T14:43:26;8;8;
47079;PMS5003;33067;49.296;14.470;2023-12-29T14:45:50;11;7;
47079;PMS5003;33067;49.296;14.470;2023-12-29T14:48:15;8;8;
47079;PMS5003;33067;49.296;14.470;2023-12-29T14:50:40;11;9;
47079;PMS5003;33067;49.296;14.470;2023-12-29T14:53:06;8;8;
47079;PMS5003;33067;49.296;14.470;2023-12-29T14:55:31;6;6;
47079;PMS5003;33067;49.296;14.470;2023-12-29T14:57:56;7;7;
47079;PMS5003;33067;49.296;14.470;2023-12-29T15:00:21;11;9;
47079;PMS5003;33067;49.296;14.470;2023-12-29T15:02:47;8;8;
47079;PMS5003;33067;49.296;14.470;2023-12-29T15:05:12;14;13;
47079;PMS5003;33067;49.296;14.470;2023-12-29T15:07:37;13;12;
47079;PMS5003;33067;49.296;14.470;2023-12-29T15:10:05;13;12;
47079;PMS5003;33067;49.296;14.470;2023-12-29T15:12:28;12;11;
47079;PMS5003;33067;49.296;14.470;2023-12-29T15:14:54;7;7;
47079;PMS5003;33067;49.296;14.470;2023-12-29T15:17:19;14;14;
47079;PMS5003;33067;49.296;14.470;2023-12-29T15:19:45;11;11;
47079;PMS5003;33067;49.296;14.470;2023-12-29T15:22:11;11;8;
47079;PMS5003;33067;49.296;14.470;2023-12-29T15:24:36;13;13;
47079;PMS5003;33067;49.296;14.470;2023-12-29T15:27:01;8;8;
47079;PMS5003;33067;49.296;14.470;2023-12-29T15:29:26;7;7;
47079;PMS5003;33067;49.296;14.470;2023-12-29T15:31:52;9;7;
47079;PMS5003;33067;49.296;14.470;2023-12-29T15:34:17;6;6;
47079;PMS5003;33067;49.296;14.470;2023-12-29T15:36:42;5;5;
47079;PMS5003;33067;49.296;14.470;2023-12-29T15:39:09;7;7;
47079;PMS5003;33067;49.296;14.470;2023-12-29T15:41:33;10;7;
47079;PMS5003;33067;49.296;14.470;2023-12-29T15:43:59;8;8;
47079;PMS5003;33067;49.296;14.470;2023-12-29T15:46:24;7;7;
47079;PMS5003;33067;49.296;14.470;2023-12-29T15:48:50;11;8;
47079;PMS5003;33067;49.296;14.470;2023-12-29T15:51:17;8;8;
47079;PMS5003;33067;49.296;14.470;2023-12-29T15:53:40;8;8;
47079;PMS5003;33067;49.296;14.470;2023-12-29T15:56:06;7;7;
47079;PMS5003;33067;49.296;14.470;2023-12-29T15:58:31;8;6;
47079;PMS5003;33067;49.296;14.470;2023-12-29T16:00:56;11;11;
47079;PMS5003;33067;49.296;14.470;2023-12-29T16:03:21;9;7;
47079;PMS5003;33067;49.296;14.470;2023-12-29T16:05:47;11;11;
47079;PMS5003;33067;49.296;14.470;2023-12-29T16:08:12;15;11;
47079;PMS5003;33067;49.296;14.470;2023-12-29T16:10:39;8;7;